sensor_id;sensor_type;location;lat;lon;timestamp;pressure;altitude;pressure_sealevel;temperature;humidity
10652;BME280;5374;42.742;23.266;2022-12-29T00:01:21;96395.97;;;6.61;92.20
10652;BME280;5374;42.742;23.266;2022-12-29T00:04:11;96388.88;;;6.55;91.77
10652;BME280;5374;42.742;23.266;2022-12-29T00:06:59;96397.59;;;6.62;91.63
10652;BME280;5374;42.742;23.266;2022-12-29T00:09:48;96396.19;;;6.66;90.97
10652;BME280;5374;42.742;23.266;2022-12-29T00:12:35;96398.22;;;6.71;90.66
10652;BME280;5374;42.742;23.266;2022-12-29T00:15:39;96389.06;;;6.67;90.84
10652;BME280;5374;42.742;23.266;2022-12-29T00:18:27;96409.59;;;6.71;90.88
10652;BME280;5374;42.742;23.266;2022-12-29T00:21:16;96414.88;;;6.71;90.30
10652;BME280;5374;42.742;23.266;2022-12-29T00:24:21;96399.19;;;6.57;90.42
10652;BME280;5374;42.742;23.266;2022-12-29T00:27:27;96413.84;;;6.72;90.14
10652;BME280;5374;42.742;23.266;2022-12-29T00:30:31;96415.09;;;6.76;89.88
10652;BME280;5374;42.742;23.266;2022-12-29T00:33:36;96417.28;;;6.79;89.32
10652;BME280;5374;42.742;23.266;2022-12-29T00:36:41;96421.56;;;6.80;89.54
10652;BME280;5374;42.742;23.266;2022-12-29T00:39:30;96420.75;;;6.73;89.57
10652;BME280;5374;42.742;23.266;2022-12-29T00:42:36;96422.38;;;6.81;88.86
10652;BME280;5374;42.742;23.266;2022-12-29T00:45:40;96420.16;;;6.71;89.11
10652;BME280;5374;42.742;23.266;2022-12-29T00:48:28;96425.22;;;6.79;89.26
10652;BME280;5374;42.742;23.266;2022-12-29T00:51:32;96435.78;;;6.79;88.67
10652;BME280;5374;42.742;23.266;2022-12-29T00:54:19;96427.28;;;6.77;88.65
10652;BME280;5374;42.742;23.266;2022-12-29T00:57:08;96424.81;;;6.69;88.08
10652;BME280;5374;42.742;23.266;2022-12-29T00:59:57;96406.09;;;6.58;88.88
10652;BME280;5374;42.742;23.266;2022-12-29T01:02:44;96424.81;;;6.76;88.65
10652;BME280;5374;42.742;23.266;2022-12-29T01:05:31;96419.56;;;6.76;88.46
10652;BME280;5374;42.742;23.266;2022-12-29T01:08:22;96422.00;;;6.77;88.09
10652;BME280;5374;42.742;23.266;2022-12-29T01:11:11;96424.00;;;6.75;88.17
10652;BME280;5374;42.742;23.266;2022-12-29T01:13:57;96414.25;;;6.69;88.32
10652;BME280;5374;42.742;23.266;2022-12-29T01:16:46;96407.53;;;6.67;88.15
10652;BME280;5374;42.742;23.266;2022-12-29T01:19:33;96418.13;;;6.73;88.09
10652;BME280;5374;42.742;23.266;2022-12-29T01:22:20;96418.72;;;6.75;88.34
10652;BME280;5374;42.742;23.266;2022-12-29T01:25:08;96388.66;;;6.63;88.23
10652;BME280;5374;42.742;23.266;2022-12-29T01:27:55;96410.59;;;6.70;88.38
10652;BME280;5374;42.742;23.266;2022-12-29T01:30:42;96402.06;;;6.68;88.74
10652;BME280;5374;42.742;23.266;2022-12-29T01:33:31;96395.78;;;6.69;89.04
10652;BME280;5374;42.742;23.266;2022-12-29T01:36:18;96392.31;;;6.62;88.75
10652;BME280;5374;42.742;23.266;2022-12-29T01:39:05;96387.66;;;6.71;88.42
10652;BME280;5374;42.742;23.266;2022-12-29T01:41:52;96387.03;;;6.69;88.66
10652;BME280;5374;42.742;23.266;2022-12-29T01:44:57;96381.75;;;6.62;89.48
10652;BME280;5374;42.742;23.266;2022-12-29T01:47:49;96382.97;;;6.60;89.97
10652;BME280;5374;42.742;23.266;2022-12-29T01:50:40;96378.50;;;6.54;90.27
10652;BME280;5374;42.742;23.266;2022-12-29T01:53:30;96388.03;;;6.61;89.87
10652;BME280;5374;42.742;23.266;2022-12-29T01:56:19;96386.03;;;6.63;89.72
10652;BME280;5374;42.742;23.266;2022-12-29T01:59:10;96385.41;;;6.61;89.46
10652;BME280;5374;42.742;23.266;2022-12-29T02:02:00;96375.69;;;6.55;90.53
10652;BME280;5374;42.742;23.266;2022-12-29T02:04:48;96368.78;;;6.54;90.45
10652;BME280;5374;42.742;23.266;2022-12-29T02:07:37;96375.25;;;6.51;90.93
10652;BME280;5374;42.742;23.266;2022-12-29T02:10:28;96374.84;;;6.61;90.27
10652;BME280;5374;42.742;23.266;2022-12-29T02:13:17;96374.84;;;6.61;90.28
10652;BME280;5374;42.742;23.266;2022-12-29T02:16:15;96373.22;;;6.54;90.76
10652;BME280;5374;42.742;23.266;2022-12-29T02:19:27;96375.84;;;6.47;92.50
10652;BME280;5374;42.742;23.266;2022-12-29T02:22:27;96371.78;;;6.44;93.17
10652;BME280;5374;42.742;23.266;2022-12-29T02:29:05;96340.31;;;6.23;93.51
10652;BME280;5374;42.742;23.266;2022-12-29T02:32:02;96361.44;;;6.43;93.64
10652;BME280;5374;42.742;23.266;2022-12-29T02:34:58;96364.69;;;6.45;93.89
10652;BME280;5374;42.742;23.266;2022-12-29T02:37:58;96378.50;;;6.47;94.05
10652;BME280;5374;42.742;23.266;2022-12-29T02:40:48;96376.66;;;6.47;94.42
10652;BME280;5374;42.742;23.266;2022-12-29T02:43:40;96378.09;;;6.50;94.23
10652;BME280;5374;42.742;23.266;2022-12-29T02:46:36;96381.53;;;6.50;94.21
10652;BME280;5374;42.742;23.266;2022-12-29T02:49:32;96369.97;;;6.51;94.56
10652;BME280;5374;42.742;23.266;2022-12-29T02:52:25;96375.47;;;6.50;95.04
10652;BME280;5374;42.742;23.266;2022-12-29T02:55:14;96366.72;;;6.49;95.07
10652;BME280;5374;42.742;23.266;2022-12-29T02:58:15;96372.38;;;6.40;95.95
10652;BME280;5374;42.742;23.266;2022-12-29T03:01:20;96353.09;;;6.33;96.45
10652;BME280;5374;42.742;23.266;2022-12-29T03:04:19;96363.25;;;6.42;95.77
10652;BME280;5374;42.742;23.266;2022-12-29T03:07:15;96361.84;;;6.40;97.15
10652;BME280;5374;42.742;23.266;2022-12-29T03:10:15;96360.00;;;6.40;97.71
10652;BME280;5374;42.742;23.266;2022-12-29T03:13:13;96331.59;;;6.29;97.46
10652;BME280;5374;42.742;23.266;2022-12-29T03:16:23;96349.47;;;6.40;97.65
10652;BME280;5374;42.742;23.266;2022-12-29T03:19:14;96344.56;;;6.37;98.40
10652;BME280;5374;42.742;23.266;2022-12-29T03:22:05;96345.59;;;6.36;96.45
10652;BME280;5374;42.742;23.266;2022-12-29T03:25:15;96344.78;;;6.29;94.12
10652;BME280;5374;42.742;23.266;2022-12-29T03:28:08;96334.81;;;6.18;93.18
10652;BME280;5374;42.742;23.266;2022-12-29T03:30:58;96346.81;;;6.27;90.54
10652;BME280;5374;42.742;23.266;2022-12-29T03:33:47;96350.03;;;6.23;89.29
10652;BME280;5374;42.742;23.266;2022-12-29T03:36:38;96344.34;;;6.19;89.44
10652;BME280;5374;42.742;23.266;2022-12-29T03:39:27;96345.56;;;6.16;88.26
10652;BME280;5374;42.742;23.266;2022-12-29T03:42:19;96355.47;;;6.14;87.34
10652;BME280;5374;42.742;23.266;2022-12-29T03:45:08;96357.69;;;6.11;87.61
10652;BME280;5374;42.742;23.266;2022-12-29T03:47:55;96369.88;;;6.05;87.86
10652;BME280;5374;42.742;23.266;2022-12-29T03:50:43;96358.47;;;5.92;88.42
10652;BME280;5374;42.742;23.266;2022-12-29T03:53:30;96370.44;;;5.94;88.21
10652;BME280;5374;42.742;23.266;2022-12-29T03:56:17;96365.53;;;5.84;88.59
10652;BME280;5374;42.742;23.266;2022-12-29T03:59:05;96375.63;;;5.88;88.84
10652;BME280;5374;42.742;23.266;2022-12-29T04:01:52;96379.72;;;5.83;89.04
10652;BME280;5374;42.742;23.266;2022-12-29T04:04:40;96374.00;;;5.80;88.75
10652;BME280;5374;42.742;23.266;2022-12-29T04:07:27;96364.00;;;5.69;88.79
10652;BME280;5374;42.742;23.266;2022-12-29T04:10:14;96364.81;;;5.63;89.15
10652;BME280;5374;42.742;23.266;2022-12-29T04:13:02;96370.09;;;5.63;89.27
10652;BME280;5374;42.742;23.266;2022-12-29T04:15:50;96362.34;;;5.55;89.38
10652;BME280;5374;42.742;23.266;2022-12-29T04:18:38;96378.34;;;5.53;89.75
10652;BME280;5374;42.742;23.266;2022-12-29T04:21:25;96361.84;;;5.38;90.77
10652;BME280;5374;42.742;23.266;2022-12-29T04:24:12;96380.91;;;5.46;91.74
10652;BME280;5374;42.742;23.266;2022-12-29T04:26:59;96378.28;;;5.40;93.03
10652;BME280;5374;42.742;23.266;2022-12-29T04:29:46;96384.13;;;5.35;94.27
10652;BME280;5374;42.742;23.266;2022-12-29T04:32:35;96362.94;;;5.22;95.17
10652;BME280;5374;42.742;23.266;2022-12-29T04:35:22;96388.75;;;5.33;95.66
10652;BME280;5374;42.742;23.266;2022-12-29T04:38:09;96391.59;;;5.32;96.76
10652;BME280;5374;42.742;23.266;2022-12-29T04:40:58;96381.63;;;5.27;96.50
10652;BME280;5374;42.742;23.266;2022-12-29T04:43:45;96393.63;;;5.36;96.63
10652;BME280;5374;42.742;23.266;2022-12-29T04:46:33;96389.72;;;5.26;97.15
10652;BME280;5374;42.742;23.266;2022-12-29T04:49:21;96401.06;;;5.26;99.16
10652;BME280;5374;42.742;23.266;2022-12-29T04:52:08;96381.94;;;5.11;100.00
10652;BME280;5374;42.742;23.266;2022-12-29T04:54:56;96403.44;;;5.21;100.00
10652;BME280;5374;42.742;23.266;2022-12-29T04:57:43;96398.41;;;5.20;100.00
10652;BME280;5374;42.742;23.266;2022-12-29T05:00:30;96411.03;;;5.31;100.00
10652;BME280;5374;42.742;23.266;2022-12-29T05:03:17;96411.66;;;5.33;100.00
10652;BME280;5374;42.742;23.266;2022-12-29T05:06:06;96417.34;;;5.36;100.00
10652;BME280;5374;42.742;23.266;2022-12-29T05:08:54;96416.97;;;5.39;100.00
10652;BME280;5374;42.742;23.266;2022-12-29T05:11:41;96421.81;;;5.42;100.00
10652;BME280;5374;42.742;23.266;2022-12-29T05:14:28;96415.16;;;5.40;100.00
10652;BME280;5374;42.742;23.266;2022-12-29T05:20:57;96418.63;;;5.47;100.00
10652;BME280;5374;42.742;23.266;2022-12-29T05:23:46;96422.31;;;5.53;100.00
10652;BME280;5374;42.742;23.266;2022-12-29T05:26:33;96409.75;;;5.55;100.00
10652;BME280;5374;42.742;23.266;2022-12-29T05:29:20;96396.72;;;5.46;100.00
10652;BME280;5374;42.742;23.266;2022-12-29T05:32:07;96407.34;;;5.60;100.00
10652;BME280;5374;42.742;23.266;2022-12-29T05:34:54;96408.97;;;5.61;100.00
10652;BME280;5374;42.742;23.266;2022-12-29T05:37:41;96424.38;;;5.57;100.00
10652;BME280;5374;42.742;23.266;2022-12-29T05:40:29;96416.06;;;5.60;100.00
10652;BME280;5374;42.742;23.266;2022-12-29T05:43:17;96418.72;;;5.60;100.00
10652;BME280;5374;42.742;23.266;2022-12-29T05:46:04;96413.44;;;5.67;100.00
10652;BME280;5374;42.742;23.266;2022-12-29T05:48:51;96421.34;;;5.67;100.00
10652;BME280;5374;42.742;23.266;2022-12-29T05:55:20;96418.50;;;5.62;100.00
10652;BME280;5374;42.742;23.266;2022-12-29T05:58:09;96425.25;;;5.71;100.00
10652;BME280;5374;42.742;23.266;2022-12-29T06:00:56;96419.34;;;5.69;100.00
10652;BME280;5374;42.742;23.266;2022-12-29T06:03:44;96427.28;;;5.75;100.00
10652;BME280;5374;42.742;23.266;2022-12-29T06:06:31;96423.47;;;5.78;100.00
10652;BME280;5374;42.742;23.266;2022-12-29T06:09:18;96431.59;;;5.83;100.00
10652;BME280;5374;42.742;23.266;2022-12-29T06:12:05;96444.78;;;5.83;100.00
10652;BME280;5374;42.742;23.266;2022-12-29T06:14:54;96436.25;;;5.81;100.00
10652;BME280;5374;42.742;23.266;2022-12-29T06:17:41;96430.78;;;5.82;100.00
10652;BME280;5374;42.742;23.266;2022-12-29T06:20:29;96433.41;;;5.82;100.00
10652;BME280;5374;42.742;23.266;2022-12-29T06:23:16;96441.19;;;5.91;100.00
10652;BME280;5374;42.742;23.266;2022-12-29T06:26:04;96426.34;;;5.83;100.00
10652;BME280;5374;42.742;23.266;2022-12-29T06:28:51;96440.38;;;5.90;100.00
10652;BME280;5374;42.742;23.266;2022-12-29T06:31:40;96433.84;;;5.86;100.00
10652;BME280;5374;42.742;23.266;2022-12-29T06:34:27;96425.09;;;5.79;100.00
10652;BME280;5374;42.742;23.266;2022-12-29T06:37:14;96442.00;;;5.91;100.00
10652;BME280;5374;42.742;23.266;2022-12-29T06:40:01;96442.63;;;5.93;100.00
10652;BME280;5374;42.742;23.266;2022-12-29T06:42:48;96441.66;;;6.01;100.00
10652;BME280;5374;42.742;23.266;2022-12-29T06:45:37;96447.31;;;5.98;100.00
10652;BME280;5374;42.742;23.266;2022-12-29T06:48:26;96453.00;;;6.01;100.00
10652;BME280;5374;42.742;23.266;2022-12-29T06:51:13;96446.53;;;6.04;100.00
10652;BME280;5374;42.742;23.266;2022-12-29T06:54:01;96439.59;;;5.96;100.00
10652;BME280;5374;42.742;23.266;2022-12-29T06:56:48;96418.06;;;5.93;100.00
10652;BME280;5374;42.742;23.266;2022-12-29T06:59:35;96442.31;;;6.09;100.00
10652;BME280;5374;42.742;23.266;2022-12-29T07:02:22;96426.63;;;6.01;100.00
10652;BME280;5374;42.742;23.266;2022-12-29T07:05:12;96457.53;;;6.21;100.00
10652;BME280;5374;42.742;23.266;2022-12-29T07:07:59;96450.88;;;6.25;100.00
10652;BME280;5374;42.742;23.266;2022-12-29T07:10:46;96454.13;;;6.27;100.00
10652;BME280;5374;42.742;23.266;2022-12-29T07:13:33;96455.94;;;6.33;100.00
10652;BME280;5374;42.742;23.266;2022-12-29T07:16:21;96447.44;;;6.37;100.00
10652;BME280;5374;42.742;23.266;2022-12-29T07:19:08;96450.13;;;6.44;100.00
10652;BME280;5374;42.742;23.266;2022-12-29T07:21:57;96441.81;;;6.47;98.88
10652;BME280;5374;42.742;23.266;2022-12-29T07:24:44;96448.94;;;6.60;97.72
10652;BME280;5374;42.742;23.266;2022-12-29T07:27:31;96451.19;;;6.69;96.62
10652;BME280;5374;42.742;23.266;2022-12-29T07:30:18;96428.66;;;6.67;96.34
10652;BME280;5374;42.742;23.266;2022-12-29T07:33:05;96445.94;;;6.82;95.50
10652;BME280;5374;42.742;23.266;2022-12-29T07:35:52;96445.53;;;6.85;94.24
10652;BME280;5374;42.742;23.266;2022-12-29T07:38:41;96382.34;;;6.44;93.07
10652;BME280;5374;42.742;23.266;2022-12-29T07:41:29;96446.38;;;7.06;91.23
10652;BME280;5374;42.742;23.266;2022-12-29T07:44:16;96448.00;;;7.07;90.54
10652;BME280;5374;42.742;23.266;2022-12-29T07:47:03;96450.84;;;7.18;90.28
10652;BME280;5374;42.742;23.266;2022-12-29T07:49:51;96461.59;;;7.30;89.18
10652;BME280;5374;42.742;23.266;2022-12-29T07:52:38;96455.72;;;7.35;87.24
10652;BME280;5374;42.742;23.266;2022-12-29T07:55:26;96453.69;;;7.43;86.05
10652;BME280;5374;42.742;23.266;2022-12-29T07:58:14;96465.06;;;7.50;85.32
10652;BME280;5374;42.742;23.266;2022-12-29T08:01:01;96447.97;;;7.46;84.88
10652;BME280;5374;42.742;23.266;2022-12-29T08:03:49;96468.31;;;7.66;83.46
10652;BME280;5374;42.742;23.266;2022-12-29T08:06:36;96471.56;;;7.68;82.65
10652;BME280;5374;42.742;23.266;2022-12-29T08:09:23;96467.25;;;7.80;80.82
10652;BME280;5374;42.742;23.266;2022-12-29T08:12:11;96460.13;;;7.74;80.75
10652;BME280;5374;42.742;23.266;2022-12-29T08:14:59;96426.00;;;7.59;79.34
10652;BME280;5374;42.742;23.266;2022-12-29T08:17:46;96464.19;;;7.83;80.32
10652;BME280;5374;42.742;23.266;2022-12-29T08:20:33;96444.47;;;7.79;81.09
10652;BME280;5374;42.742;23.266;2022-12-29T08:23:21;96456.00;;;7.98;81.05
10652;BME280;5374;42.742;23.266;2022-12-29T08:26:09;96456.00;;;8.11;79.21
10652;BME280;5374;42.742;23.266;2022-12-29T08:28:58;96462.03;;;8.24;79.55
10652;BME280;5374;42.742;23.266;2022-12-29T08:31:45;96425.63;;;8.13;78.17
10652;BME280;5374;42.742;23.266;2022-12-29T08:34:33;96432.13;;;8.24;77.62
10652;BME280;5374;42.742;23.266;2022-12-29T08:37:20;96463.09;;;8.68;76.97
10652;BME280;5374;42.742;23.266;2022-12-29T08:40:08;96469.50;;;8.85;75.27
10652;BME280;5374;42.742;23.266;2022-12-29T08:42:56;96465.91;;;9.05;74.48
10652;BME280;5374;42.742;23.266;2022-12-29T08:45:44;96464.81;;;9.19;73.96
10652;BME280;5374;42.742;23.266;2022-12-29T08:48:31;96461.44;;;9.30;72.94
10652;BME280;5374;42.742;23.266;2022-12-29T08:51:18;96460.16;;;9.39;72.82
10652;BME280;5374;42.742;23.266;2022-12-29T08:54:05;96456.91;;;9.37;72.18
10652;BME280;5374;42.742;23.266;2022-12-29T08:56:53;96426.38;;;9.28;71.23
10652;BME280;5374;42.742;23.266;2022-12-29T08:59:40;96451.03;;;9.53;70.31
10652;BME280;5374;42.742;23.266;2022-12-29T09:02:28;96447.16;;;9.56;71.36
10652;BME280;5374;42.742;23.266;2022-12-29T09:05:16;96446.06;;;9.64;71.75
10652;BME280;5374;42.742;23.266;2022-12-29T09:08:04;96430.91;;;9.71;70.96
10652;BME280;5374;42.742;23.266;2022-12-29T09:10:51;96442.94;;;9.91;70.49
10652;BME280;5374;42.742;23.266;2022-12-29T09:13:38;96407.75;;;9.78;69.97
10652;BME280;5374;42.742;23.266;2022-12-29T09:16:25;96434.16;;;10.09;69.14
10652;BME280;5374;42.742;23.266;2022-12-29T09:19:14;96434.59;;;10.43;68.19
10652;BME280;5374;42.742;23.266;2022-12-29T09:22:01;96438.25;;;10.60;67.51
10652;BME280;5374;42.742;23.266;2022-12-29T09:24:49;96435.50;;;10.67;66.75
10652;BME280;5374;42.742;23.266;2022-12-29T09:27:36;96423.38;;;10.59;66.99
10652;BME280;5374;42.742;23.266;2022-12-29T09:30:24;96394.28;;;10.34;66.05
10652;BME280;5374;42.742;23.266;2022-12-29T09:33:11;96434.00;;;10.59;66.39
10652;BME280;5374;42.742;23.266;2022-12-29T09:36:00;96425.28;;;10.52;67.25
10652;BME280;5374;42.742;23.266;2022-12-29T09:38:48;96358.22;;;10.08;68.00
10652;BME280;5374;42.742;23.266;2022-12-29T09:41:39;96405.59;;;10.41;67.88
10652;BME280;5374;42.742;23.266;2022-12-29T09:44:46;96369.22;;;10.30;66.41
10652;BME280;5374;42.742;23.266;2022-12-29T09:47:36;96376.16;;;10.43;66.29
10652;BME280;5374;42.742;23.266;2022-12-29T09:50:25;96381.91;;;10.58;65.49
10652;BME280;5374;42.742;23.266;2022-12-29T09:53:22;96390.56;;;10.65;64.67
10652;BME280;5374;42.742;23.266;2022-12-29T09:56:15;96398.34;;;10.78;64.66
10652;BME280;5374;42.742;23.266;2022-12-29T09:59:09;96399.03;;;10.74;64.41
10652;BME280;5374;42.742;23.266;2022-12-29T10:02:06;96395.34;;;10.86;64.90
10652;BME280;5374;42.742;23.266;2022-12-29T10:04:59;96344.22;;;10.49;65.33
10652;BME280;5374;42.742;23.266;2022-12-29T10:07:52;96330.31;;;10.77;65.24
10652;BME280;5374;42.742;23.266;2022-12-29T10:10:50;96346.03;;;10.90;65.28
10652;BME280;5374;42.742;23.266;2022-12-29T10:13:52;96309.13;;;10.47;63.58
10652;BME280;5374;42.742;23.266;2022-12-29T10:16:49;96334.25;;;10.75;63.77
10652;BME280;5374;42.742;23.266;2022-12-29T10:19:56;96331.34;;;10.76;63.08
10652;BME280;5374;42.742;23.266;2022-12-29T10:23:00;96303.66;;;10.31;63.44
10652;BME280;5374;42.742;23.266;2022-12-29T10:25:55;96382.78;;;10.93;63.76
10652;BME280;5374;42.742;23.266;2022-12-29T10:28:46;96372.75;;;10.95;63.47
10652;BME280;5374;42.742;23.266;2022-12-29T10:31:39;96336.84;;;10.63;62.11
10652;BME280;5374;42.742;23.266;2022-12-29T10:34:31;96359.69;;;10.94;62.66
10652;BME280;5374;42.742;23.266;2022-12-29T10:37:30;96362.00;;;11.14;63.60
10652;BME280;5374;42.742;23.266;2022-12-29T10:40:25;96319.34;;;10.85;63.39
10652;BME280;5374;42.742;23.266;2022-12-29T10:43:22;96366.88;;;11.05;62.33
10652;BME280;5374;42.742;23.266;2022-12-29T10:46:12;96314.97;;;10.79;63.00
10652;BME280;5374;42.742;23.266;2022-12-29T10:49:01;96349.44;;;11.21;63.19
10652;BME280;5374;42.742;23.266;2022-12-29T10:51:50;96329.19;;;11.08;62.19
10652;BME280;5374;42.742;23.266;2022-12-29T10:54:45;96345.72;;;11.34;62.94
10652;BME280;5374;42.742;23.266;2022-12-29T10:57:35;96349.09;;;11.29;62.98
10652;BME280;5374;42.742;23.266;2022-12-29T11:00:24;96341.56;;;11.26;62.89
10652;BME280;5374;42.742;23.266;2022-12-29T11:06:44;96322.59;;;11.34;62.61
10652;BME280;5374;42.742;23.266;2022-12-29T11:09:34;96333.59;;;11.49;63.02
10652;BME280;5374;42.742;23.266;2022-12-29T11:12:25;96322.47;;;11.52;62.27
10652;BME280;5374;42.742;23.266;2022-12-29T11:15:14;96324.34;;;11.40;63.09
10652;BME280;5374;42.742;23.266;2022-12-29T11:18:03;96322.47;;;11.52;63.45
10652;BME280;5374;42.742;23.266;2022-12-29T11:20:52;96316.22;;;11.58;63.20
10652;BME280;5374;42.742;23.266;2022-12-29T11:23:40;96318.75;;;11.77;63.41
10652;BME280;5374;42.742;23.266;2022-12-29T11:26:28;96302.09;;;11.70;62.94
10652;BME280;5374;42.742;23.266;2022-12-29T11:29:21;96319.44;;;11.60;62.82
10652;BME280;5374;42.742;23.266;2022-12-29T11:32:11;96314.72;;;11.51;63.59
10652;BME280;5374;42.742;23.266;2022-12-29T11:35:01;96313.69;;;11.40;63.32
10652;BME280;5374;42.742;23.266;2022-12-29T11:37:55;96318.91;;;11.47;64.20
10652;BME280;5374;42.742;23.266;2022-12-29T11:40:44;96312.19;;;11.44;64.30
10652;BME280;5374;42.742;23.266;2022-12-29T11:43:33;96299.59;;;11.40;64.64
10652;BME280;5374;42.742;23.266;2022-12-29T11:46:24;96261.59;;;11.04;64.77
10652;BME280;5374;42.742;23.266;2022-12-29T11:49:13;96300.75;;;11.20;65.30
10652;BME280;5374;42.742;23.266;2022-12-29T11:52:08;96256.59;;;11.08;65.36
10652;BME280;5374;42.742;23.266;2022-12-29T11:54:56;96248.09;;;11.06;65.33
10652;BME280;5374;42.742;23.266;2022-12-29T11:57:44;96232.72;;;10.96;65.82
10652;BME280;5374;42.742;23.266;2022-12-29T12:00:34;96294.38;;;11.33;66.08
10652;BME280;5374;42.742;23.266;2022-12-29T12:03:27;96237.22;;;10.95;65.30
10652;BME280;5374;42.742;23.266;2022-12-29T12:06:19;96284.00;;;11.20;66.16
10652;BME280;5374;42.742;23.266;2022-12-29T12:09:17;96287.47;;;11.20;66.07
10652;BME280;5374;42.742;23.266;2022-12-29T12:12:20;96282.84;;;11.16;66.29
10652;BME280;5374;42.742;23.266;2022-12-29T12:15:14;96272.56;;;11.08;66.19
10652;BME280;5374;42.742;23.266;2022-12-29T12:18:07;96251.88;;;10.98;66.09
10652;BME280;5374;42.742;23.266;2022-12-29T12:20:57;96278.44;;;11.10;66.27
10652;BME280;5374;42.742;23.266;2022-12-29T12:24:01;96260.09;;;10.96;66.21
10652;BME280;5374;42.742;23.266;2022-12-29T12:26:59;96247.84;;;10.95;66.07
10652;BME280;5374;42.742;23.266;2022-12-29T12:29:52;96228.69;;;10.82;66.63
10652;BME280;5374;42.742;23.266;2022-12-29T12:32:48;96250.72;;;10.94;66.93
10652;BME280;5374;42.742;23.266;2022-12-29T12:35:43;96257.91;;;11.05;66.49
10652;BME280;5374;42.742;23.266;2022-12-29T12:38:36;96212.03;;;10.63;67.07
10652;BME280;5374;42.742;23.266;2022-12-29T12:41:32;96245.41;;;10.94;67.28
10652;BME280;5374;42.742;23.266;2022-12-29T12:44:28;96256.16;;;10.87;67.25
10652;BME280;5374;42.742;23.266;2022-12-29T12:47:27;96256.16;;;10.87;67.32
10652;BME280;5374;42.742;23.266;2022-12-29T12:50:32;96259.16;;;10.79;67.52
10652;BME280;5374;42.742;23.266;2022-12-29T12:53:33;96258.72;;;10.82;67.80
10652;BME280;5374;42.742;23.266;2022-12-29T12:56:40;96218.38;;;10.74;66.82
10652;BME280;5374;42.742;23.266;2022-12-29T12:59:41;96193.91;;;10.48;67.50
10652;BME280;5374;42.742;23.266;2022-12-29T13:02:43;96243.09;;;10.74;67.61
10652;BME280;5374;42.742;23.266;2022-12-29T13:05:50;96225.88;;;10.65;67.91
10652;BME280;5374;42.742;23.266;2022-12-29T13:08:58;96189.63;;;10.36;67.67
10652;BME280;5374;42.742;23.266;2022-12-29T13:12:05;96249.13;;;10.81;67.93
10652;BME280;5374;42.742;23.266;2022-12-29T13:15:05;96247.16;;;10.77;67.85
10652;BME280;5374;42.742;23.266;2022-12-29T13:18:02;96235.38;;;10.61;67.93
10652;BME280;5374;42.742;23.266;2022-12-29T13:21:00;96242.41;;;10.67;67.50
10652;BME280;5374;42.742;23.266;2022-12-29T13:23:53;96243.66;;;10.53;67.96
10652;BME280;5374;42.742;23.266;2022-12-29T13:26:46;96257.16;;;10.51;68.54
10652;BME280;5374;42.742;23.266;2022-12-29T13:29:40;96249.19;;;10.40;69.09
10652;BME280;5374;42.742;23.266;2022-12-29T13:32:43;96251.50;;;10.48;68.96
10652;BME280;5374;42.742;23.266;2022-12-29T13:35:45;96240.66;;;10.38;68.96
10652;BME280;5374;42.742;23.266;2022-12-29T13:38:38;96257.94;;;10.40;69.10
10652;BME280;5374;42.742;23.266;2022-12-29T13:41:30;96269.06;;;10.49;69.44
10652;BME280;5374;42.742;23.266;2022-12-29T13:44:21;96262.97;;;10.60;69.62
10652;BME280;5374;42.742;23.266;2022-12-29T13:47:16;96255.31;;;10.63;69.42
10652;BME280;5374;42.742;23.266;2022-12-29T13:50:13;96267.81;;;10.63;69.76
10652;BME280;5374;42.742;23.266;2022-12-29T13:53:08;96258.78;;;10.64;69.83
10652;BME280;5374;42.742;23.266;2022-12-29T13:56:04;96247.81;;;10.49;70.33
10652;BME280;5374;42.742;23.266;2022-12-29T13:58:57;96245.75;;;10.51;70.58
10652;BME280;5374;42.742;23.266;2022-12-29T14:01:53;96250.59;;;10.54;70.69
10652;BME280;5374;42.742;23.266;2022-12-29T14:04:56;96196.66;;;10.00;70.88
10652;BME280;5374;42.742;23.266;2022-12-29T14:07:45;96236.84;;;10.45;70.04
10652;BME280;5374;42.742;23.266;2022-12-29T14:10:36;96261.56;;;10.57;70.16
10652;BME280;5374;42.742;23.266;2022-12-29T14:13:25;96216.19;;;10.17;70.33
10652;BME280;5374;42.742;23.266;2022-12-29T14:16:28;96239.50;;;10.34;70.79
10652;BME280;5374;42.742;23.266;2022-12-29T14:19:17;96264.56;;;10.49;70.95
10652;BME280;5374;42.742;23.266;2022-12-29T14:22:05;96269.78;;;10.56;70.74
10652;BME280;5374;42.742;23.266;2022-12-29T14:24:54;96203.28;;;10.09;70.91
10652;BME280;5374;42.742;23.266;2022-12-29T14:27:51;96261.53;;;10.46;71.67
10652;BME280;5374;42.742;23.266;2022-12-29T14:30:57;96249.75;;;10.30;71.28
10652;BME280;5374;42.742;23.266;2022-12-29T14:34:15;96212.63;;;10.12;70.99
10652;BME280;5374;42.742;23.266;2022-12-29T14:37:03;96226.22;;;10.04;70.99
10652;BME280;5374;42.742;23.266;2022-12-29T14:40:05;96279.75;;;10.31;71.40
10652;BME280;5374;42.742;23.266;2022-12-29T14:42:54;96243.53;;;10.06;71.61
10652;BME280;5374;42.742;23.266;2022-12-29T14:45:42;96263.41;;;10.15;71.81
10652;BME280;5374;42.742;23.266;2022-12-29T14:48:35;96276.34;;;10.12;71.95
10652;BME280;5374;42.742;23.266;2022-12-29T14:51:34;96263.16;;;10.05;71.81
10652;BME280;5374;42.742;23.266;2022-12-29T14:54:46;96279.50;;;10.02;72.19
10652;BME280;5374;42.742;23.266;2022-12-29T14:57:39;96280.41;;;9.96;72.58
10652;BME280;5374;42.742;23.266;2022-12-29T15:00:30;96275.44;;;9.88;73.09
10652;BME280;5374;42.742;23.266;2022-12-29T15:03:21;96281.41;;;9.83;73.48
10652;BME280;5374;42.742;23.266;2022-12-29T15:06:11;96273.00;;;9.86;73.46
10652;BME280;5374;42.742;23.266;2022-12-29T15:09:06;96262.31;;;9.75;73.69
10652;BME280;5374;42.742;23.266;2022-12-29T15:12:01;96274.72;;;9.63;74.52
10652;BME280;5374;42.742;23.266;2022-12-29T15:14:53;96267.88;;;9.55;75.01
10652;BME280;5374;42.742;23.266;2022-12-29T15:17:41;96264.25;;;9.49;75.34
10652;BME280;5374;42.742;23.266;2022-12-29T15:20:29;96260.31;;;9.40;75.97
10652;BME280;5374;42.742;23.266;2022-12-29T15:23:17;96278.78;;;9.29;76.02
10652;BME280;5374;42.742;23.266;2022-12-29T15:26:06;96206.38;;;8.98;76.55
10652;BME280;5374;42.742;23.266;2022-12-29T15:28:53;96268.19;;;9.29;76.75